sensor_id;sensor_type;location;lat;lon;timestamp;temperature;humidity
21255;DHT22;10785;50.674;17.954;2022-07-23T00:02:25;22.30;99.90
21255;DHT22;10785;50.674;17.954;2022-07-23T00:04:54;22.30;99.90
21255;DHT22;10785;50.674;17.954;2022-07-23T00:07:23;22.30;99.90
21255;DHT22;10785;50.674;17.954;2022-07-23T00:09:51;22.30;99.90
21255;DHT22;10785;50.674;17.954;2022-07-23T00:12:20;22.30;99.90
21255;DHT22;10785;50.674;17.954;2022-07-23T00:14:49;22.20;99.90
21255;DHT22;10785;50.674;17.954;2022-07-23T00:17:20;22.10;99.90
21255;DHT22;10785;50.674;17.954;2022-07-23T00:19:48;22.10;99.90
21255;DHT22;10785;50.674;17.954;2022-07-23T00:22:17;22.10;99.90
21255;DHT22;10785;50.674;17.954;2022-07-23T00:24:45;22.10;99.90
21255;DHT22;10785;50.674;17.954;2022-07-23T00:27:34;22.10;99.90
21255;DHT22;10785;50.674;17.954;2022-07-23T00:30:03;22.00;99.90
21255;DHT22;10785;50.674;17.954;2022-07-23T00:32:45;22.00;99.90
21255;DHT22;10785;50.674;17.954;2022-07-23T00:35:24;21.90;99.90
21255;DHT22;10785;50.674;17.954;2022-07-23T00:37:53;21.80;99.90
21255;DHT22;10785;50.674;17.954;2022-07-23T00:40:22;21.70;99.90
21255;DHT22;10785;50.674;17.954;2022-07-23T00:42:51;21.70;99.90
21255;DHT22;10785;50.674;17.954;2022-07-23T00:45:20;21.60;99.90
21255;DHT22;10785;50.674;17.954;2022-07-23T00:47:50;21.60;99.90
21255;DHT22;10785;50.674;17.954;2022-07-23T00:50:19;21.50;99.90
21255;DHT22;10785;50.674;17.954;2022-07-23T00:52:48;21.50;99.90
21255;DHT22;10785;50.674;17.954;2022-07-23T00:55:17;21.40;99.90
21255;DHT22;10785;50.674;17.954;2022-07-23T00:57:45;21.40;99.90
21255;DHT22;10785;50.674;17.954;2022-07-23T01:00:15;21.40;99.90
21255;DHT22;10785;50.674;17.954;2022-07-23T01:02:44;21.40;99.90
21255;DHT22;10785;50.674;17.954;2022-07-23T01:05:16;21.30;99.90
21255;DHT22;10785;50.674;17.954;2022-07-23T01:07:50;21.30;99.90
21255;DHT22;10785;50.674;17.954;2022-07-23T01:10:23;21.30;99.90
21255;DHT22;10785;50.674;17.954;2022-07-23T01:13:04;21.30;99.90
21255;DHT22;10785;50.674;17.954;2022-07-23T01:15:33;21.20;99.90
21255;DHT22;10785;50.674;17.954;2022-07-23T01:18:03;21.10;99.90
21255;DHT22;10785;50.674;17.954;2022-07-23T01:20:35;21.10;99.90
21255;DHT22;10785;50.674;17.954;2022-07-23T01:23:05;21.00;99.90
21255;DHT22;10785;50.674;17.954;2022-07-23T01:25:36;21.00;99.90
21255;DHT22;10785;50.674;17.954;2022-07-23T01:28:05;20.90;99.90
21255;DHT22;10785;50.674;17.954;2022-07-23T01:30:34;20.90;99.90
21255;DHT22;10785;50.674;17.954;2022-07-23T01:33:06;20.90;99.90
21255;DHT22;10785;50.674;17.954;2022-07-23T01:35:36;20.90;99.90
21255;DHT22;10785;50.674;17.954;2022-07-23T01:38:08;20.90;99.90
21255;DHT22;10785;50.674;17.954;2022-07-23T01:40:39;20.80;99.90
21255;DHT22;10785;50.674;17.954;2022-07-23T01:43:09;20.80;99.90
21255;DHT22;10785;50.674;17.954;2022-07-23T01:45:40;20.80;99.90
21255;DHT22;10785;50.674;17.954;2022-07-23T01:48:08;20.80;99.90
21255;DHT22;10785;50.674;17.954;2022-07-23T01:50:43;20.70;99.90
21255;DHT22;10785;50.674;17.954;2022-07-23T01:53:34;20.80;99.90
21255;DHT22;10785;50.674;17.954;2022-07-23T01:56:03;20.80;99.90
21255;DHT22;10785;50.674;17.954;2022-07-23T01:58:31;20.80;99.90
21255;DHT22;10785;50.674;17.954;2022-07-23T02:01:00;20.70;99.90
21255;DHT22;10785;50.674;17.954;2022-07-23T02:03:30;20.60;99.90
21255;DHT22;10785;50.674;17.954;2022-07-23T02:05:58;20.60;99.90
21255;DHT22;10785;50.674;17.954;2022-07-23T02:08:29;20.60;99.90
21255;DHT22;10785;50.674;17.954;2022-07-23T02:11:02;20.50;99.90
21255;DHT22;10785;50.674;17.954;2022-07-23T02:13:33;20.50;99.90
21255;DHT22;10785;50.674;17.954;2022-07-23T02:16:01;20.60;99.90
21255;DHT22;10785;50.674;17.954;2022-07-23T02:18:30;20.60;99.90
21255;DHT22;10785;50.674;17.954;2022-07-23T02:20:59;20.60;99.90
21255;DHT22;10785;50.674;17.954;2022-07-23T02:23:27;20.60;99.90
21255;DHT22;10785;50.674;17.954;2022-07-23T02:25:56;20.60;99.90
21255;DHT22;10785;50.674;17.954;2022-07-23T02:28:26;20.70;99.90
21255;DHT22;10785;50.674;17.954;2022-07-23T02:30:56;20.80;99.90
21255;DHT22;10785;50.674;17.954;2022-07-23T02:33:25;20.80;99.90
21255;DHT22;10785;50.674;17.954;2022-07-23T02:35:55;20.90;99.90
21255;DHT22;10785;50.674;17.954;2022-07-23T02:38:24;21.00;99.90
21255;DHT22;10785;50.674;17.954;2022-07-23T02:40:53;20.90;99.90
21255;DHT22;10785;50.674;17.954;2022-07-23T02:43:21;20.80;99.90
21255;DHT22;10785;50.674;17.954;2022-07-23T02:45:51;20.80;99.90
21255;DHT22;10785;50.674;17.954;2022-07-23T02:48:20;20.80;99.90
21255;DHT22;10785;50.674;17.954;2022-07-23T02:50:48;20.90;99.90
21255;DHT22;10785;50.674;17.954;2022-07-23T02:53:25;20.90;99.90
21255;DHT22;10785;50.674;17.954;2022-07-23T02:55:54;20.90;99.90
21255;DHT22;10785;50.674;17.954;2022-07-23T02:58:22;20.90;99.90
21255;DHT22;10785;50.674;17.954;2022-07-23T03:00:53;20.90;99.90
21255;DHT22;10785;50.674;17.954;2022-07-23T03:03:24;21.00;99.90
21255;DHT22;10785;50.674;17.954;2022-07-23T03:05:56;21.00;99.90
21255;DHT22;10785;50.674;17.954;2022-07-23T03:08:26;21.10;99.90
21255;DHT22;10785;50.674;17.954;2022-07-23T03:10:55;21.20;99.90
21255;DHT22;10785;50.674;17.954;2022-07-23T03:13:24;21.20;99.90
21255;DHT22;10785;50.674;17.954;2022-07-23T03:15:55;21.20;99.90
21255;DHT22;10785;50.674;17.954;2022-07-23T03:18:26;21.20;99.90
21255;DHT22;10785;50.674;17.954;2022-07-23T03:20:55;21.20;99.90
21255;DHT22;10785;50.674;17.954;2022-07-23T03:23:24;21.00;99.90
21255;DHT22;10785;50.674;17.954;2022-07-23T03:25:52;21.00;99.90
21255;DHT22;10785;50.674;17.954;2022-07-23T03:28:22;21.00;99.90
21255;DHT22;10785;50.674;17.954;2022-07-23T03:30:51;21.20;99.90
21255;DHT22;10785;50.674;17.954;2022-07-23T03:33:22;21.60;99.90
21255;DHT22;10785;50.674;17.954;2022-07-23T03:35:53;22.00;99.90
21255;DHT22;10785;50.674;17.954;2022-07-23T03:38:27;22.00;99.90
21255;DHT22;10785;50.674;17.954;2022-07-23T03:40:56;22.00;99.90
21255;DHT22;10785;50.674;17.954;2022-07-23T03:43:25;22.10;99.90
21255;DHT22;10785;50.674;17.954;2022-07-23T03:45:53;22.30;99.90
21255;DHT22;10785;50.674;17.954;2022-07-23T03:48:23;22.30;99.90
21255;DHT22;10785;50.674;17.954;2022-07-23T03:50:52;22.00;99.90
21255;DHT22;10785;50.674;17.954;2022-07-23T03:53:21;21.80;99.90
21255;DHT22;10785;50.674;17.954;2022-07-23T03:55:49;21.50;99.90
21255;DHT22;10785;50.674;17.954;2022-07-23T03:58:18;21.30;99.90
21255;DHT22;10785;50.674;17.954;2022-07-23T04:00:47;21.20;99.90
21255;DHT22;10785;50.674;17.954;2022-07-23T04:03:16;21.20;99.90
21255;DHT22;10785;50.674;17.954;2022-07-23T04:05:47;21.40;99.90
21255;DHT22;10785;50.674;17.954;2022-07-23T04:08:15;22.00;99.90
21255;DHT22;10785;50.674;17.954;2022-07-23T04:10:50;22.00;99.90
21255;DHT22;10785;50.674;17.954;2022-07-23T04:13:18;21.80;99.90
21255;DHT22;10785;50.674;17.954;2022-07-23T04:15:48;21.90;99.90
21255;DHT22;10785;50.674;17.954;2022-07-23T04:18:18;22.20;99.90
21255;DHT22;10785;50.674;17.954;2022-07-23T04:20:57;22.70;99.90
21255;DHT22;10785;50.674;17.954;2022-07-23T04:23:26;23.20;99.90
21255;DHT22;10785;50.674;17.954;2022-07-23T04:25:55;23.60;99.90
21255;DHT22;10785;50.674;17.954;2022-07-23T04:28:25;23.70;99.90
21255;DHT22;10785;50.674;17.954;2022-07-23T04:30:56;23.30;99.90
21255;DHT22;10785;50.674;17.954;2022-07-23T04:33:26;23.10;99.90
21255;DHT22;10785;50.674;17.954;2022-07-23T04:35:59;23.00;99.90
21255;DHT22;10785;50.674;17.954;2022-07-23T04:38:27;23.00;99.90
21255;DHT22;10785;50.674;17.954;2022-07-23T04:41:00;22.80;99.90
21255;DHT22;10785;50.674;17.954;2022-07-23T04:43:29;23.20;99.90
21255;DHT22;10785;50.674;17.954;2022-07-23T04:45:58;23.80;99.90
21255;DHT22;10785;50.674;17.954;2022-07-23T04:48:35;24.10;99.90
21255;DHT22;10785;50.674;17.954;2022-07-23T04:51:10;24.20;99.90
21255;DHT22;10785;50.674;17.954;2022-07-23T04:53:39;24.50;99.90
21255;DHT22;10785;50.674;17.954;2022-07-23T04:56:08;25.00;97.50
21255;DHT22;10785;50.674;17.954;2022-07-23T04:58:36;25.30;95.20
21255;DHT22;10785;50.674;17.954;2022-07-23T05:01:05;25.00;95.90
21255;DHT22;10785;50.674;17.954;2022-07-23T05:03:35;24.90;95.60
21255;DHT22;10785;50.674;17.954;2022-07-23T05:06:04;25.50;95.00
21255;DHT22;10785;50.674;17.954;2022-07-23T05:08:34;26.20;92.80
21255;DHT22;10785;50.674;17.954;2022-07-23T05:11:03;26.60;79.40
21255;DHT22;10785;50.674;17.954;2022-07-23T05:13:31;27.60;62.80
21255;DHT22;10785;50.674;17.954;2022-07-23T05:16:00;28.10;54.90
21255;DHT22;10785;50.674;17.954;2022-07-23T05:18:29;28.30;46.60
21255;DHT22;10785;50.674;17.954;2022-07-23T05:20:58;28.70;42.70
21255;DHT22;10785;50.674;17.954;2022-07-23T05:23:27;29.00;38.10
21255;DHT22;10785;50.674;17.954;2022-07-23T05:25:57;29.60;32.90
21255;DHT22;10785;50.674;17.954;2022-07-23T05:28:28;30.40;28.40
21255;DHT22;10785;50.674;17.954;2022-07-23T05:30:57;30.70;25.90
21255;DHT22;10785;50.674;17.954;2022-07-23T05:33:28;31.30;23.80
21255;DHT22;10785;50.674;17.954;2022-07-23T05:36:04;30.80;22.90
21255;DHT22;10785;50.674;17.954;2022-07-23T05:38:43;30.60;23.30
21255;DHT22;10785;50.674;17.954;2022-07-23T05:41:14;31.00;22.90
21255;DHT22;10785;50.674;17.954;2022-07-23T05:43:44;31.10;21.90
21255;DHT22;10785;50.674;17.954;2022-07-23T05:46:15;31.90;20.00
21255;DHT22;10785;50.674;17.954;2022-07-23T05:48:49;31.90;19.20
21255;DHT22;10785;50.674;17.954;2022-07-23T05:51:42;31.20;20.50
21255;DHT22;10785;50.674;17.954;2022-07-23T05:54:17;31.50;19.50
21255;DHT22;10785;50.674;17.954;2022-07-23T05:56:47;32.50;17.50
21255;DHT22;10785;50.674;17.954;2022-07-23T05:59:19;32.30;17.40
21255;DHT22;10785;50.674;17.954;2022-07-23T06:01:53;31.90;17.50
21255;DHT22;10785;50.674;17.954;2022-07-23T06:04:22;32.60;16.10
21255;DHT22;10785;50.674;17.954;2022-07-23T06:07:17;32.50;15.40
21255;DHT22;10785;50.674;17.954;2022-07-23T06:09:47;32.00;16.10
21255;DHT22;10785;50.674;17.954;2022-07-23T06:12:21;32.00;16.20
21255;DHT22;10785;50.674;17.954;2022-07-23T06:14:51;32.10;16.10
21255;DHT22;10785;50.674;17.954;2022-07-23T06:17:20;32.60;15.50
21255;DHT22;10785;50.674;17.954;2022-07-23T06:19:52;32.90;15.10
21255;DHT22;10785;50.674;17.954;2022-07-23T06:22:20;33.50;14.20
21255;DHT22;10785;50.674;17.954;2022-07-23T06:24:50;32.80;14.10
21255;DHT22;10785;50.674;17.954;2022-07-23T06:27:22;33.30;14.20
21255;DHT22;10785;50.674;17.954;2022-07-23T06:29:54;33.40;13.80
21255;DHT22;10785;50.674;17.954;2022-07-23T06:32:22;33.80;13.50
21255;DHT22;10785;50.674;17.954;2022-07-23T06:34:52;34.70;12.00
21255;DHT22;10785;50.674;17.954;2022-07-23T06:37:21;35.20;11.20
21255;DHT22;10785;50.674;17.954;2022-07-23T06:39:51;35.30;11.20
21255;DHT22;10785;50.674;17.954;2022-07-23T06:42:21;35.70;10.10
21255;DHT22;10785;50.674;17.954;2022-07-23T06:44:57;35.30;10.30
21255;DHT22;10785;50.674;17.954;2022-07-23T06:47:29;34.70;10.80
21255;DHT22;10785;50.674;17.954;2022-07-23T06:49:59;34.50;10.70
21255;DHT22;10785;50.674;17.954;2022-07-23T06:52:30;34.70;10.30
21255;DHT22;10785;50.674;17.954;2022-07-23T06:55:00;34.50;10.40
21255;DHT22;10785;50.674;17.954;2022-07-23T06:57:31;34.40;10.90
21255;DHT22;10785;50.674;17.954;2022-07-23T07:00:01;33.90;11.30
21255;DHT22;10785;50.674;17.954;2022-07-23T07:02:31;33.40;11.90
21255;DHT22;10785;50.674;17.954;2022-07-23T07:05:00;33.00;12.50
21255;DHT22;10785;50.674;17.954;2022-07-23T07:07:33;33.20;12.20
21255;DHT22;10785;50.674;17.954;2022-07-23T07:10:02;33.60;11.50
21255;DHT22;10785;50.674;17.954;2022-07-23T07:12:32;34.20;10.90
21255;DHT22;10785;50.674;17.954;2022-07-23T07:15:03;34.10;10.30
21255;DHT22;10785;50.674;17.954;2022-07-23T07:17:32;33.70;10.50
21255;DHT22;10785;50.674;17.954;2022-07-23T07:20:10;32.90;11.50
21255;DHT22;10785;50.674;17.954;2022-07-23T07:22:39;32.80;12.40
21255;DHT22;10785;50.674;17.954;2022-07-23T07:25:08;32.40;12.80
21255;DHT22;10785;50.674;17.954;2022-07-23T07:27:39;32.50;12.90
21255;DHT22;10785;50.674;17.954;2022-07-23T07:30:10;32.50;13.10
21255;DHT22;10785;50.674;17.954;2022-07-23T07:32:40;32.50;13.10
21255;DHT22;10785;50.674;17.954;2022-07-23T07:35:27;31.50;14.60
21255;DHT22;10785;50.674;17.954;2022-07-23T07:37:56;31.40;14.60
21255;DHT22;10785;50.674;17.954;2022-07-23T07:40:25;31.40;14.50
21255;DHT22;10785;50.674;17.954;2022-07-23T07:43:01;31.60;14.60
21255;DHT22;10785;50.674;17.954;2022-07-23T07:45:30;32.00;13.70
21255;DHT22;10785;50.674;17.954;2022-07-23T07:47:59;32.40;13.00
21255;DHT22;10785;50.674;17.954;2022-07-23T07:50:28;32.30;13.00
21255;DHT22;10785;50.674;17.954;2022-07-23T07:53:00;32.30;12.50
21255;DHT22;10785;50.674;17.954;2022-07-23T07:55:29;32.50;12.20
21255;DHT22;10785;50.674;17.954;2022-07-23T07:58:02;32.80;12.00
21255;DHT22;10785;50.674;17.954;2022-07-23T08:00:32;32.90;11.70
21255;DHT22;10785;50.674;17.954;2022-07-23T08:03:00;32.70;11.90
21255;DHT22;10785;50.674;17.954;2022-07-23T08:05:30;32.80;12.50
21255;DHT22;10785;50.674;17.954;2022-07-23T08:08:01;32.80;12.10
21255;DHT22;10785;50.674;17.954;2022-07-23T08:10:30;32.70;11.80
21255;DHT22;10785;50.674;17.954;2022-07-23T08:13:01;32.70;11.70
21255;DHT22;10785;50.674;17.954;2022-07-23T08:15:35;32.70;11.80
21255;DHT22;10785;50.674;17.954;2022-07-23T08:18:04;32.70;12.50
21255;DHT22;10785;50.674;17.954;2022-07-23T08:20:33;33.00;11.50
21255;DHT22;10785;50.674;17.954;2022-07-23T08:23:04;32.70;11.30
21255;DHT22;10785;50.674;17.954;2022-07-23T08:25:35;32.90;11.40
21255;DHT22;10785;50.674;17.954;2022-07-23T08:28:08;32.70;11.70
21255;DHT22;10785;50.674;17.954;2022-07-23T08:30:38;32.80;11.90
21255;DHT22;10785;50.674;17.954;2022-07-23T08:33:08;33.00;11.60
21255;DHT22;10785;50.674;17.954;2022-07-23T08:35:59;33.00;11.70
21255;DHT22;10785;50.674;17.954;2022-07-23T08:38:27;32.90;11.50
21255;DHT22;10785;50.674;17.954;2022-07-23T08:40:56;33.10;10.10
21255;DHT22;10785;50.674;17.954;2022-07-23T08:43:28;32.90;10.10
21255;DHT22;10785;50.674;17.954;2022-07-23T08:46:00;32.60;10.00
21255;DHT22;10785;50.674;17.954;2022-07-23T08:48:32;32.30;10.00
21255;DHT22;10785;50.674;17.954;2022-07-23T08:51:04;32.20;10.10
21255;DHT22;10785;50.674;17.954;2022-07-23T08:53:35;32.10;10.10
21255;DHT22;10785;50.674;17.954;2022-07-23T08:56:08;32.00;10.30
21255;DHT22;10785;50.674;17.954;2022-07-23T08:58:38;32.10;10.10
21255;DHT22;10785;50.674;17.954;2022-07-23T09:01:07;32.20;10.10
21255;DHT22;10785;50.674;17.954;2022-07-23T09:03:37;32.40;10.10
21255;DHT22;10785;50.674;17.954;2022-07-23T09:06:06;32.40;9.70
21255;DHT22;10785;50.674;17.954;2022-07-23T09:08:36;32.20;10.00
21255;DHT22;10785;50.674;17.954;2022-07-23T09:11:06;32.30;9.90
21255;DHT22;10785;50.674;17.954;2022-07-23T09:13:39;32.60;9.40
21255;DHT22;10785;50.674;17.954;2022-07-23T09:16:11;32.50;9.50
21255;DHT22;10785;50.674;17.954;2022-07-23T09:18:43;32.70;9.30
21255;DHT22;10785;50.674;17.954;2022-07-23T09:21:21;33.20;8.90
21255;DHT22;10785;50.674;17.954;2022-07-23T09:23:54;33.30;8.10
21255;DHT22;10785;50.674;17.954;2022-07-23T09:26:28;33.30;8.70
21255;DHT22;10785;50.674;17.954;2022-07-23T09:29:10;33.30;8.30
21255;DHT22;10785;50.674;17.954;2022-07-23T09:31:44;32.90;8.10
21255;DHT22;10785;50.674;17.954;2022-07-23T09:34:16;33.00;8.20
21255;DHT22;10785;50.674;17.954;2022-07-23T09:36:46;33.10;7.90
21255;DHT22;10785;50.674;17.954;2022-07-23T09:39:16;33.10;7.90
21255;DHT22;10785;50.674;17.954;2022-07-23T09:41:51;33.10;7.90
21255;DHT22;10785;50.674;17.954;2022-07-23T09:44:21;33.20;7.50
21255;DHT22;10785;50.674;17.954;2022-07-23T09:46:58;33.10;7.90
21255;DHT22;10785;50.674;17.954;2022-07-23T09:49:27;33.10;7.60
21255;DHT22;10785;50.674;17.954;2022-07-23T09:51:57;33.10;8.10
21255;DHT22;10785;50.674;17.954;2022-07-23T09:54:31;33.00;8.10
21255;DHT22;10785;50.674;17.954;2022-07-23T09:57:03;32.90;7.90
21255;DHT22;10785;50.674;17.954;2022-07-23T09:59:36;32.50;8.10
21255;DHT22;10785;50.674;17.954;2022-07-23T10:02:08;32.50;8.60
21255;DHT22;10785;50.674;17.954;2022-07-23T10:04:52;32.40;8.80
21255;DHT22;10785;50.674;17.954;2022-07-23T10:07:32;32.50;8.20
21255;DHT22;10785;50.674;17.954;2022-07-23T10:10:21;32.50;8.30
21255;DHT22;10785;50.674;17.954;2022-07-23T10:13:09;32.40;8.30
21255;DHT22;10785;50.674;17.954;2022-07-23T10:15:53;32.60;7.90
21255;DHT22;10785;50.674;17.954;2022-07-23T10:18:23;33.20;8.10
21255;DHT22;10785;50.674;17.954;2022-07-23T10:20:53;33.60;8.10
21255;DHT22;10785;50.674;17.954;2022-07-23T10:23:27;33.70;7.20
21255;DHT22;10785;50.674;17.954;2022-07-23T10:26:05;33.80;6.90
21255;DHT22;10785;50.674;17.954;2022-07-23T10:28:50;33.60;7.30
21255;DHT22;10785;50.674;17.954;2022-07-23T10:31:35;33.50;7.20
21255;DHT22;10785;50.674;17.954;2022-07-23T10:34:35;33.60;7.40
21255;DHT22;10785;50.674;17.954;2022-07-23T10:37:12;33.60;7.50
21255;DHT22;10785;50.674;17.954;2022-07-23T10:39:48;33.60;7.30
21255;DHT22;10785;50.674;17.954;2022-07-23T10:42:36;33.80;7.10
21255;DHT22;10785;50.674;17.954;2022-07-23T10:45:30;34.10;6.60
21255;DHT22;10785;50.674;17.954;2022-07-23T10:48:15;34.00;6.90
21255;DHT22;10785;50.674;17.954;2022-07-23T10:51:05;34.10;6.70
21255;DHT22;10785;50.674;17.954;2022-07-23T10:53:56;34.00;6.30
21255;DHT22;10785;50.674;17.954;2022-07-23T10:56:51;33.90;6.50
21255;DHT22;10785;50.674;17.954;2022-07-23T11:02:58;33.40;6.90
21255;DHT22;10785;50.674;17.954;2022-07-23T11:05:40;33.30;7.10
21255;DHT22;10785;50.674;17.954;2022-07-23T11:08:18;33.20;6.70
21255;DHT22;10785;50.674;17.954;2022-07-23T11:10:52;33.00;7.10
21255;DHT22;10785;50.674;17.954;2022-07-23T11:13:28;33.00;7.10
21255;DHT22;10785;50.674;17.954;2022-07-23T11:16:06;32.80;7.80
21255;DHT22;10785;50.674;17.954;2022-07-23T11:19:09;32.70;7.60
21255;DHT22;10785;50.674;17.954;2022-07-23T11:21:51;32.40;7.60
21255;DHT22;10785;50.674;17.954;2022-07-23T11:24:21;32.40;7.80
21255;DHT22;10785;50.674;17.954;2022-07-23T11:29:45;32.20;7.50
21255;DHT22;10785;50.674;17.954;2022-07-23T11:32:28;32.30;7.70
21255;DHT22;10785;50.674;17.954;2022-07-23T11:34:57;32.40;7.80
21255;DHT22;10785;50.674;17.954;2022-07-23T11:37:35;32.40;8.10
21255;DHT22;10785;50.674;17.954;2022-07-23T11:40:07;32.50;7.90
21255;DHT22;10785;50.674;17.954;2022-07-23T11:42:39;32.60;7.50
21255;DHT22;10785;50.674;17.954;2022-07-23T11:45:09;32.50;8.00
21255;DHT22;10785;50.674;17.954;2022-07-23T11:47:38;32.40;8.40
21255;DHT22;10785;50.674;17.954;2022-07-23T11:50:07;32.20;8.60
21255;DHT22;10785;50.674;17.954;2022-07-23T11:52:36;32.00;8.80
21255;DHT22;10785;50.674;17.954;2022-07-23T11:55:06;31.80;8.50
21255;DHT22;10785;50.674;17.954;2022-07-23T11:57:39;31.60;8.50
21255;DHT22;10785;50.674;17.954;2022-07-23T12:00:11;31.50;8.90
21255;DHT22;10785;50.674;17.954;2022-07-23T12:02:42;31.30;9.10
21255;DHT22;10785;50.674;17.954;2022-07-23T12:05:12;30.80;11.90
21255;DHT22;10785;50.674;17.954;2022-07-23T12:07:42;30.40;12.40
21255;DHT22;10785;50.674;17.954;2022-07-23T12:10:14;30.00;13.10
21255;DHT22;10785;50.674;17.954;2022-07-23T12:12:46;29.90;13.70
21255;DHT22;10785;50.674;17.954;2022-07-23T12:15:18;29.80;14.40
21255;DHT22;10785;50.674;17.954;2022-07-23T12:17:49;29.60;15.20
21255;DHT22;10785;50.674;17.954;2022-07-23T12:20:21;29.40;15.80
21255;DHT22;10785;50.674;17.954;2022-07-23T12:22:52;29.10;16.80
21255;DHT22;10785;50.674;17.954;2022-07-23T12:25:23;28.90;17.70
21255;DHT22;10785;50.674;17.954;2022-07-23T12:28:02;28.40;20.30
21255;DHT22;10785;50.674;17.954;2022-07-23T12:30:33;26.30;96.10
21255;DHT22;10785;50.674;17.954;2022-07-23T12:33:03;24.40;99.90
21255;DHT22;10785;50.674;17.954;2022-07-23T12:35:35;23.10;99.90
21255;DHT22;10785;50.674;17.954;2022-07-23T12:38:06;22.50;99.90
21255;DHT22;10785;50.674;17.954;2022-07-23T12:40:37;22.40;99.90
21255;DHT22;10785;50.674;17.954;2022-07-23T12:43:18;22.40;99.90
21255;DHT22;10785;50.674;17.954;2022-07-23T12:45:49;22.50;99.90
21255;DHT22;10785;50.674;17.954;2022-07-23T12:48:24;22.70;99.90
21255;DHT22;10785;50.674;17.954;2022-07-23T12:50:55;23.00;99.90
21255;DHT22;10785;50.674;17.954;2022-07-23T12:53:27;23.20;99.90
21255;DHT22;10785;50.674;17.954;2022-07-23T12:56:03;23.30;99.90
21255;DHT22;10785;50.674;17.954;2022-07-23T12:58:46;23.40;99.90
21255;DHT22;10785;50.674;17.954;2022-07-23T13:01:30;23.50;99.90
21255;DHT22;10785;50.674;17.954;2022-07-23T13:04:02;23.50;99.90
21255;DHT22;10785;50.674;17.954;2022-07-23T13:06:41;23.50;99.90
21255;DHT22;10785;50.674;17.954;2022-07-23T13:09:17;23.70;99.90
21255;DHT22;10785;50.674;17.954;2022-07-23T13:11:48;23.70;99.90
21255;DHT22;10785;50.674;17.954;2022-07-23T13:14:20;23.90;99.90
21255;DHT22;10785;50.674;17.954;2022-07-23T13:16:49;23.90;99.90
21255;DHT22;10785;50.674;17.954;2022-07-23T13:19:19;24.00;99.90
21255;DHT22;10785;50.674;17.954;2022-07-23T13:21:51;23.90;99.90
21255;DHT22;10785;50.674;17.954;2022-07-23T13:24:21;23.90;99.90
21255;DHT22;10785;50.674;17.954;2022-07-23T13:26:50;23.90;99.90
21255;DHT22;10785;50.674;17.954;2022-07-23T13:29:20;23.80;99.90
21255;DHT22;10785;50.674;17.954;2022-07-23T13:31:50;23.80;99.90
21255;DHT22;10785;50.674;17.954;2022-07-23T13:34:18;23.80;99.90
21255;DHT22;10785;50.674;17.954;2022-07-23T13:36:47;24.00;99.90
21255;DHT22;10785;50.674;17.954;2022-07-23T13:39:16;24.10;99.90
21255;DHT22;10785;50.674;17.954;2022-07-23T13:41:44;24.20;99.90
21255;DHT22;10785;50.674;17.954;2022-07-23T13:44:17;24.10;99.90
21255;DHT22;10785;50.674;17.954;2022-07-23T13:46:50;24.10;99.90
21255;DHT22;10785;50.674;17.954;2022-07-23T13:49:19;24.00;99.90
21255;DHT22;10785;50.674;17.954;2022-07-23T13:51:48;24.20;99.90
21255;DHT22;10785;50.674;17.954;2022-07-23T13:54:17;24.30;99.90
21255;DHT22;10785;50.674;17.954;2022-07-23T13:56:45;24.30;99.90
21255;DHT22;10785;50.674;17.954;2022-07-23T13:59:14;24.30;99.90
21255;DHT22;10785;50.674;17.954;2022-07-23T14:01:44;24.30;99.90
21255;DHT22;10785;50.674;17.954;2022-07-23T14:04:34;24.30;99.90
21255;DHT22;10785;50.674;17.954;2022-07-23T14:07:03;24.30;99.90
21255;DHT22;10785;50.674;17.954;2022-07-23T14:09:31;24.60;99.90
21255;DHT22;10785;50.674;17.954;2022-07-23T14:12:01;24.70;99.90
21255;DHT22;10785;50.674;17.954;2022-07-23T14:14:30;24.60;99.90
21255;DHT22;10785;50.674;17.954;2022-07-23T14:16:59;24.60;99.90
21255;DHT22;10785;50.674;17.954;2022-07-23T14:19:29;24.70;99.90
21255;DHT22;10785;50.674;17.954;2022-07-23T14:21:59;24.70;99.90
21255;DHT22;10785;50.674;17.954;2022-07-23T14:24:27;24.70;99.90
21255;DHT22;10785;50.674;17.954;2022-07-23T14:27:01;24.60;99.90
21255;DHT22;10785;50.674;17.954;2022-07-23T14:29:32;24.70;99.90
21255;DHT22;10785;50.674;17.954;2022-07-23T14:32:02;24.70;99.90
21255;DHT22;10785;50.674;17.954;2022-07-23T14:34:33;24.80;99.90
21255;DHT22;10785;50.674;17.954;2022-07-23T14:37:05;24.90;99.90
21255;DHT22;10785;50.674;17.954;2022-07-23T14:39:34;25.10;99.90
21255;DHT22;10785;50.674;17.954;2022-07-23T14:42:04;25.20;99.90
21255;DHT22;10785;50.674;17.954;2022-07-23T14:44:33;25.30;99.90
21255;DHT22;10785;50.674;17.954;2022-07-23T14:47:02;25.50;99.90
21255;DHT22;10785;50.674;17.954;2022-07-23T14:49:33;25.40;99.90
21255;DHT22;10785;50.674;17.954;2022-07-23T14:52:05;25.50;99.90
21255;DHT22;10785;50.674;17.954;2022-07-23T14:54:34;25.70;99.90
21255;DHT22;10785;50.674;17.954;2022-07-23T14:57:03;25.90;99.90
21255;DHT22;10785;50.674;17.954;2022-07-23T14:59:37;25.90;99.90
21255;DHT22;10785;50.674;17.954;2022-07-23T15:02:07;26.10;99.90
21255;DHT22;10785;50.674;17.954;2022-07-23T15:04:35;26.40;99.90
21255;DHT22;10785;50.674;17.954;2022-07-23T15:07:06;26.30;99.90
21255;DHT22;10785;50.674;17.954;2022-07-23T15:09:36;26.00;99.90
21255;DHT22;10785;50.674;17.954;2022-07-23T15:12:05;25.90;99.90
21255;DHT22;10785;50.674;17.954;2022-07-23T15:14:38;25.80;99.90
21255;DHT22;10785;50.674;17.954;2022-07-23T15:17:08;25.80;99.90
21255;DHT22;10785;50.674;17.954;2022-07-23T15:19:42;25.80;99.90
21255;DHT22;10785;50.674;17.954;2022-07-23T15:22:19;25.80;99.90
21255;DHT22;10785;50.674;17.954;2022-07-23T15:24:53;25.90;99.90
21255;DHT22;10785;50.674;17.954;2022-07-23T15:27:23;25.90;99.90
21255;DHT22;10785;50.674;17.954;2022-07-23T15:29:56;25.90;99.90
21255;DHT22;10785;50.674;17.954;2022-07-23T15:32:25;26.00;99.90
21255;DHT22;10785;50.674;17.954;2022-07-23T15:34:56;26.20;99.90
21255;DHT22;10785;50.674;17.954;2022-07-23T15:37:27;26.10;99.90
21255;DHT22;10785;50.674;17.954;2022-07-23T15:40:03;26.20;99.90
21255;DHT22;10785;50.674;17.954;2022-07-23T15:42:40;26.30;99.90
21255;DHT22;10785;50.674;17.954;2022-07-23T15:45:12;26.30;99.90
21255;DHT22;10785;50.674;17.954;2022-07-23T15:47:41;26.20;99.90
21255;DHT22;10785;50.674;17.954;2022-07-23T15:50:18;26.20;99.90
21255;DHT22;10785;50.674;17.954;2022-07-23T15:52:55;26.10;99.90
21255;DHT22;10785;50.674;17.954;2022-07-23T15:55:26;26.00;99.90